createdAt,value
2023-03-12T00:00:21.334Z,90.32
2023-03-12T00:05:22.200Z,88.56
2023-03-12T00:10:23.028Z,89.30
2023-03-12T00:15:24.659Z,88.59
2023-03-12T00:20:25.669Z,85.92
2023-03-12T00:25:26.769Z,87.91
2023-03-12T00:30:28.994Z,86.94
2023-03-12T00:35:30.128Z,86.32
2023-03-12T00:40:30.939Z,87.75
2023-03-12T00:45:31.699Z,89.48
2023-03-12T00:50:33.406Z,88.06
2023-03-12T00:55:34.400Z,88.61
2023-03-12T01:00:35.345Z,89.77
2023-03-12T01:05:37.089Z,87.87
2023-03-12T01:10:41.964Z,88.80
2023-03-12T01:15:43.319Z,89.80
2023-03-12T01:20:44.745Z,88.71
2023-03-12T01:25:46.698Z,86.12
2023-03-12T01:30:47.542Z,87.88
2023-03-12T01:35:49.604Z,89.79
2023-03-12T01:40:51.124Z,88.68
2023-03-12T01:46:24.496Z,89.14
2023-03-12T01:51:34.628Z,90.07
2023-03-12T01:56:37.268Z,90.98
2023-03-12T02:01:39.847Z,91.30
2023-03-12T02:06:48.625Z,91.02
2023-03-12T02:11:49.813Z,90.64
2023-03-12T02:16:53.296Z,90.70
2023-03-12T02:21:55.019Z,90.37
2023-03-12T02:26:56.497Z,90.21
2023-03-12T02:31:59.850Z,90.06
2023-03-12T02:37:00.804Z,89.18
2023-03-12T02:42:04.456Z,85.60
2023-03-12T02:47:07.480Z,88.30
2023-03-12T02:52:09.053Z,89.01
2023-03-12T02:57:10.108Z,87.49
2023-03-12T03:02:12.227Z,86.25
2023-03-12T03:07:14.122Z,87.04
2023-03-12T03:12:15.517Z,89.33
2023-03-12T03:17:16.486Z,91.03
2023-03-12T03:22:19.260Z,89.32
2023-03-12T03:27:20.887Z,86.08
2023-03-12T03:32:21.727Z,83.63
2023-03-12T03:37:22.544Z,80.72
2023-03-12T03:42:24.178Z,81.93
2023-03-12T03:47:25.937Z,83.20
2023-03-12T03:52:26.793Z,82.66
2023-03-12T03:57:28.342Z,82.26
2023-03-12T04:02:29.737Z,83.35
2023-03-12T04:07:31.919Z,84.69
2023-03-12T04:12:32.823Z,87.79
2023-03-12T04:17:33.771Z,89.54
2023-03-12T04:22:35.825Z,87.83
2023-03-12T04:27:36.818Z,86.54
2023-03-12T04:32:38.483Z,85.35
2023-03-12T04:37:39.615Z,86.24
2023-03-12T04:42:40.574Z,87.06
2023-03-12T04:47:41.949Z,86.83
2023-03-12T04:52:43.846Z,87.36
2023-03-12T04:57:45.399Z,87.89
2023-03-12T05:02:46.570Z,87.54
2023-03-12T05:07:47.704Z,86.65
2023-03-12T05:12:49.386Z,88.79
2023-03-12T05:17:50.247Z,88.00
2023-03-12T05:22:51.650Z,90.63
2023-03-12T05:27:52.561Z,91.17
2023-03-12T05:32:53.466Z,92.15
2023-03-12T05:37:54.376Z,93.61
2023-03-12T05:42:55.680Z,93.77
2023-03-12T05:47:57.828Z,97.40
2023-03-12T05:52:59.240Z,98.25
2023-03-12T05:58:00.330Z,99.34
2023-03-12T06:03:01.627Z,100.00
2023-03-12T06:08:04.019Z,100.00
2023-03-12T06:13:06.016Z,100.00
2023-03-12T06:18:07.067Z,100.00
2023-03-12T06:23:08.809Z,100.00
2023-03-12T06:28:09.766Z,100.00
2023-03-12T06:33:10.569Z,100.00
2023-03-12T06:38:11.342Z,100.00
2023-03-12T06:43:12.277Z,100.00
2023-03-12T06:48:13.087Z,100.00
2023-03-12T06:53:14.083Z,100.00
2023-03-12T06:58:14.952Z,100.00
2023-03-12T07:03:15.910Z,100.00
2023-03-12T07:08:18.189Z,100.00
2023-03-12T07:13:19.002Z,100.00
2023-03-12T07:18:19.758Z,100.00
2023-03-12T07:23:21.516Z,100.00
2023-03-12T07:28:22.436Z,100.00
2023-03-12T07:33:23.408Z,100.00
2023-03-12T07:38:24.758Z,100.00
2023-03-12T07:43:26.431Z,100.00
2023-03-12T07:48:28.762Z,100.00
2023-03-12T07:53:29.524Z,100.00
2023-03-12T07:58:30.630Z,100.00
2023-03-12T08:03:32.255Z,100.00
2023-03-12T08:08:35.398Z,100.00
2023-03-12T08:13:36.339Z,100.00
2023-03-12T08:18:37.253Z,100.00
2023-03-12T08:23:38.008Z,100.00
2023-03-12T08:28:39.091Z,100.00
2023-03-12T08:33:42.775Z,100.00
2023-03-12T08:38:43.585Z,100.00
2023-03-12T08:43:44.369Z,100.00
2023-03-12T08:48:45.183Z,100.00
2023-03-12T08:53:46.397Z,100.00
2023-03-12T08:58:47.268Z,100.00
2023-03-12T09:03:50.236Z,100.00
2023-03-12T09:08:51.102Z,100.00
2023-03-12T09:14:26.560Z,100.00
2023-03-12T09:19:29.351Z,100.00
2023-03-12T09:24:30.148Z,100.00
2023-03-12T09:29:31.698Z,100.00
2023-03-12T09:34:32.454Z,100.00
2023-03-12T09:39:33.270Z,100.00
2023-03-12T09:44:38.041Z,100.00
2023-03-12T09:49:46.186Z,100.00
2023-03-12T09:54:56.171Z,100.00
2023-03-12T09:59:57.435Z,100.00
2023-03-12T10:05:06.455Z,100.00
2023-03-12T10:11:44.832Z,100.00
2023-03-12T10:18:02.418Z,100.00
2023-03-12T10:23:27.928Z,100.00
2023-03-12T10:28:37.062Z,100.00
2023-03-12T10:33:56.897Z,100.00
2023-03-12T10:38:57.727Z,100.00
2023-03-12T10:44:07.354Z,100.00
2023-03-12T10:49:29.343Z,100.00
2023-03-12T10:54:36.747Z,100.00
2023-03-12T10:59:43.500Z,100.00
2023-03-12T11:04:51.115Z,100.00
2023-03-12T11:10:46.025Z,100.00
2023-03-12T11:15:47.219Z,100.00
2023-03-12T11:20:52.166Z,100.00
2023-03-12T11:26:00.119Z,100.00
2023-03-12T11:31:01.674Z,100.00
2023-03-12T11:36:55.630Z,100.00
2023-03-12T11:45:16.146Z,100.00
2023-03-12T11:55:31.495Z,100.00
2023-03-12T12:00:53.059Z,100.00
2023-03-12T12:09:44.875Z,100.00
2023-03-12T12:15:01.409Z,100.00
2023-03-12T12:21:15.833Z,100.00
2023-03-12T12:26:43.353Z,100.00
2023-03-12T12:31:58.688Z,100.00
2023-03-12T12:37:49.853Z,100.00
2023-03-12T12:43:27.438Z,100.00
2023-03-12T12:48:51.998Z,100.00
2023-03-12T12:54:26.400Z,100.00
2023-03-12T12:59:34.094Z,100.00
2023-03-12T13:04:37.817Z,100.00
2023-03-12T13:09:51.460Z,100.00
2023-03-12T13:14:54.582Z,100.00
2023-03-12T13:23:27.775Z,100.00
2023-03-12T13:30:04.405Z,100.00
2023-03-12T13:36:22.802Z,100.00
2023-03-12T13:41:39.354Z,100.00
2023-03-12T13:46:42.002Z,100.00
2023-03-12T13:51:46.559Z,100.00
2023-03-12T13:56:58.027Z,100.00
2023-03-12T14:02:04.846Z,100.00
2023-03-12T14:08:15.657Z,100.00
2023-03-12T14:16:42.318Z,100.00
2023-03-12T14:21:46.317Z,100.00
2023-03-12T14:26:48.042Z,100.00
2023-03-12T14:31:51.287Z,100.00
2023-03-12T14:38:13.418Z,100.00
2023-03-12T14:43:26.603Z,100.00
2023-03-12T14:48:30.421Z,99.32
2023-03-12T14:53:36.567Z,100.00
2023-03-12T14:58:48.606Z,99.15
2023-03-12T15:03:57.494Z,100.00
2023-03-12T15:09:04.623Z,98.82
2023-03-12T15:14:13.944Z,98.59
2023-03-12T15:19:22.459Z,100.00
2023-03-12T15:24:24.835Z,100.00
2023-03-12T15:29:28.070Z,100.00
2023-03-12T15:34:37.695Z,100.00
2023-03-12T15:39:39.027Z,98.89
2023-03-12T15:44:54.004Z,95.62
2023-03-12T15:49:58.169Z,92.54
2023-03-12T15:56:19.982Z,90.45
2023-03-12T16:01:23.280Z,91.70
2023-03-12T16:06:27.189Z,89.62
2023-03-12T16:11:30.766Z,90.62
2023-03-12T16:16:31.754Z,90.54
2023-03-12T16:21:32.513Z,91.91
2023-03-12T16:26:35.282Z,92.61
2023-03-12T16:31:36.263Z,92.45
2023-03-12T16:36:37.542Z,90.84
2023-03-12T16:41:38.544Z,90.15
2023-03-12T16:46:39.671Z,89.21
2023-03-12T16:51:40.482Z,88.29
2023-03-12T16:56:45.319Z,89.39
2023-03-12T17:01:46.133Z,88.28
2023-03-12T17:06:47.041Z,89.01
2023-03-12T17:11:50.857Z,88.46
2023-03-12T17:16:51.827Z,88.74
2023-03-12T17:21:52.828Z,90.48
2023-03-12T17:26:54.667Z,89.57
2023-03-12T17:31:55.595Z,90.59
2023-03-12T17:36:58.272Z,89.12
2023-03-12T17:41:59.100Z,90.33
2023-03-12T17:47:03.313Z,90.11
2023-03-12T17:52:04.455Z,89.17
2023-03-12T17:57:05.470Z,89.67
2023-03-12T18:02:06.541Z,90.29
2023-03-12T18:07:07.896Z,90.44
2023-03-12T18:12:10.608Z,91.48
2023-03-12T18:17:11.403Z,91.47
2023-03-12T18:22:13.733Z,92.63
2023-03-12T18:27:14.680Z,93.16
2023-03-12T18:32:15.541Z,94.21
2023-03-12T18:37:16.381Z,94.55
2023-03-12T18:42:17.505Z,94.86
2023-03-12T18:47:18.731Z,94.73
2023-03-12T18:52:19.777Z,95.83
2023-03-12T18:57:20.725Z,97.02
2023-03-12T19:02:22.972Z,97.54
2023-03-12T19:07:23.785Z,97.32
2023-03-12T19:12:24.931Z,97.46
2023-03-12T19:17:26.045Z,97.82
2023-03-12T19:22:26.950Z,98.81
2023-03-12T19:27:29.559Z,99.53
2023-03-12T19:32:42.256Z,99.65
2023-03-12T19:37:43.971Z,99.60
2023-03-12T19:42:44.837Z,100.00
2023-03-12T19:47:45.650Z,99.75
2023-03-12T19:52:47.195Z,98.72
2023-03-12T19:57:48.160Z,98.36
2023-03-12T20:02:49.313Z,98.11
2023-03-12T20:07:51.388Z,98.27
2023-03-12T20:12:52.282Z,94.46
2023-03-12T20:17:53.972Z,90.91
2023-03-12T20:22:54.753Z,90.44
2023-03-12T20:27:57.065Z,89.93
2023-03-12T20:32:58.028Z,90.54
2023-03-12T20:37:58.894Z,89.91
2023-03-12T20:43:04.148Z,90.07
2023-03-12T20:48:05.464Z,90.75
2023-03-12T20:53:09.372Z,90.25
2023-03-12T20:58:10.249Z,90.86
2023-03-12T21:03:12.813Z,92.20
2023-03-12T21:08:14.450Z,92.05
2023-03-12T21:13:17.390Z,93.04
2023-03-12T21:18:18.322Z,94.79
2023-03-12T21:23:19.348Z,95.16
2023-03-12T21:28:20.500Z,97.53
2023-03-12T21:33:22.002Z,97.33
2023-03-12T21:38:22.843Z,98.52
2023-03-12T21:43:24.968Z,98.52
2023-03-12T21:48:25.731Z,99.92
2023-03-12T21:53:26.851Z,100.00
2023-03-12T21:58:29.105Z,100.00
2023-03-12T22:03:29.842Z,100.00
2023-03-12T22:08:31.508Z,100.00
2023-03-12T22:13:32.565Z,100.00
2023-03-12T22:18:37.436Z,100.00
2023-03-12T22:23:38.357Z,100.00
2023-03-12T22:28:39.351Z,100.00
2023-03-12T22:33:40.087Z,100.00
2023-03-12T22:38:41.512Z,100.00
2023-03-12T22:43:43.033Z,100.00
2023-03-12T22:48:44.630Z,100.00
2023-03-12T22:53:45.613Z,100.00
2023-03-12T22:58:46.933Z,100.00
2023-03-12T23:03:48.910Z,100.00
2023-03-12T23:08:50.787Z,100.00
2023-03-12T23:13:52.155Z,100.00
2023-03-12T23:18:53.178Z,100.00
2023-03-12T23:23:54.077Z,100.00
2023-03-12T23:28:57.204Z,100.00
2023-03-12T23:33:57.977Z,100.00
2023-03-12T23:38:58.919Z,100.00
2023-03-12T23:43:59.727Z,100.00
2023-03-12T23:49:01.298Z,100.00
2023-03-12T23:54:04.471Z,100.00
2023-03-12T23:59:06.098Z,100.00
